createdAt,value
2023-08-31T00:00:48.688Z,97114.97
2023-08-31T00:03:37.699Z,97118.06
2023-08-31T00:06:27.844Z,97128.19
2023-08-31T00:09:16.485Z,97129.31
2023-08-31T00:12:06.622Z,97127.38
2023-08-31T00:14:55.158Z,97138.78
2023-08-31T00:17:43.866Z,97138.28
2023-08-31T00:20:34.322Z,97134.03
2023-08-31T00:23:24.418Z,97138.38
2023-08-31T00:26:12.910Z,97131.75
2023-08-31T00:29:02.749Z,97116.00
2023-08-31T00:31:52.206Z,97108.28
2023-08-31T00:34:40.747Z,97103.84
2023-08-31T00:37:29.957Z,97099.97
2023-08-31T00:40:20.179Z,97091.66
2023-08-31T00:43:09.680Z,97092.59
2023-08-31T00:45:59.503Z,97094.16
2023-08-31T00:48:48.440Z,97101.81
2023-08-31T00:51:39.154Z,97095.03
2023-08-31T00:54:28.053Z,97099.75
2023-08-31T00:57:18.480Z,97097.78
2023-08-31T01:00:09.331Z,97106.63
2023-08-31T01:03:11.055Z,97102.44
2023-08-31T01:06:12.994Z,97112.47
2023-08-31T01:09:11.414Z,97108.06
2023-08-31T01:12:06.887Z,97112.81
2023-08-31T01:15:03.620Z,97111.22
2023-08-31T01:17:57.401Z,97124.91
2023-08-31T01:20:58.551Z,97126.84
2023-08-31T01:23:54.718Z,97139.03
2023-08-31T01:26:44.642Z,97138.06
2023-08-31T01:29:33.749Z,97142.56
2023-08-31T01:32:22.709Z,97140.41
2023-08-31T01:35:12.539Z,97144.53
2023-08-31T01:38:03.961Z,97148.84
2023-08-31T01:41:02.648Z,97138.25
2023-08-31T01:43:53.841Z,97142.88
2023-08-31T01:46:43.415Z,97144.25
2023-08-31T01:49:38.738Z,97150.19
2023-08-31T01:52:27.467Z,97143.31
2023-08-31T01:55:17.029Z,97153.75
2023-08-31T01:58:07.141Z,97159.56
2023-08-31T02:00:56.900Z,97149.16
2023-08-31T02:03:45.518Z,97156.63
2023-08-31T02:06:34.179Z,97154.75
2023-08-31T02:09:22.791Z,97153.16
2023-08-31T02:12:12.414Z,97166.78
2023-08-31T02:15:02.281Z,97159.44
2023-08-31T02:17:50.885Z,97159.00
2023-08-31T02:20:39.929Z,97154.69
2023-08-31T02:23:28.450Z,97155.72
2023-08-31T02:26:17.061Z,97147.16
2023-08-31T02:29:08.084Z,97147.94
2023-08-31T02:31:58.261Z,97154.97
2023-08-31T02:34:46.815Z,97155.25
2023-08-31T02:37:35.343Z,97149.84
2023-08-31T02:40:23.844Z,97157.41
2023-08-31T02:43:12.691Z,97159.88
2023-08-31T02:46:02.939Z,97157.13
2023-08-31T02:48:53.115Z,97153.84
2023-08-31T02:51:41.625Z,97154.97
2023-08-31T02:54:30.235Z,97156.88
2023-08-31T02:57:21.030Z,97158.22
2023-08-31T03:00:13.972Z,97143.59
2023-08-31T03:03:02.574Z,97137.19
2023-08-31T03:05:58.125Z,97137.41
2023-08-31T03:08:46.645Z,97135.38
2023-08-31T03:11:36.054Z,97158.44
2023-08-31T03:14:24.991Z,97171.47
2023-08-31T03:17:13.766Z,97175.06
2023-08-31T03:20:04.773Z,97175.16
2023-08-31T03:22:54.899Z,97178.75
2023-08-31T03:25:44.107Z,97174.13
2023-08-31T03:28:32.637Z,97188.84
2023-08-31T03:31:21.279Z,97185.19
2023-08-31T03:34:09.889Z,97194.19
2023-08-31T03:36:58.877Z,97200.66
2023-08-31T03:39:49.725Z,97195.41
2023-08-31T03:42:38.220Z,97190.38
2023-08-31T03:45:28.032Z,97200.00
2023-08-31T03:48:16.661Z,97195.84
2023-08-31T03:51:05.361Z,97197.34
2023-08-31T03:53:55.652Z,97204.38
2023-08-31T03:56:46.728Z,97205.16
2023-08-31T03:59:35.601Z,97209.63
2023-08-31T04:02:25.178Z,97207.56
2023-08-31T04:05:16.154Z,97213.88
2023-08-31T04:08:07.224Z,97223.59
2023-08-31T04:10:57.610Z,97216.97
2023-08-31T04:13:47.459Z,97220.53
2023-08-31T04:16:36.525Z,97215.78
2023-08-31T04:19:25.126Z,97218.44
2023-08-31T04:22:13.624Z,97231.06
2023-08-31T04:25:02.097Z,97240.31
2023-08-31T04:27:52.041Z,97245.53
2023-08-31T04:30:43.116Z,97258.06
2023-08-31T04:33:31.627Z,97250.16
2023-08-31T04:36:20.314Z,97271.88
2023-08-31T04:39:09.170Z,97266.56
2023-08-31T04:41:57.680Z,97272.13
2023-08-31T04:44:46.196Z,97267.50
2023-08-31T04:47:36.141Z,97269.59
2023-08-31T04:50:24.714Z,97272.94
2023-08-31T04:53:13.718Z,97275.09
2023-08-31T04:56:02.439Z,97275.28
2023-08-31T04:58:51.144Z,97281.06
2023-08-31T05:01:39.652Z,97279.13
2023-08-31T05:04:30.500Z,97282.00
2023-08-31T05:07:19.062Z,97285.72
2023-08-31T05:10:10.030Z,97284.88
2023-08-31T05:12:58.570Z,97292.69
2023-08-31T05:15:48.057Z,97294.28
2023-08-31T05:18:36.860Z,97298.94
2023-08-31T05:21:26.808Z,97305.56
2023-08-31T05:24:15.470Z,97318.72
2023-08-31T05:27:04.085Z,97321.06
2023-08-31T05:29:52.780Z,97315.59
2023-08-31T05:32:41.364Z,97312.06
2023-08-31T05:35:30.122Z,97330.38
2023-08-31T05:38:20.305Z,97322.88
2023-08-31T05:41:10.509Z,97336.53
2023-08-31T05:43:59.681Z,97338.22
2023-08-31T05:46:48.193Z,97331.84
2023-08-31T05:49:36.694Z,97335.91
2023-08-31T05:52:25.164Z,97348.16
2023-08-31T05:55:15.282Z,97354.69
2023-08-31T05:58:04.191Z,97352.09
2023-08-31T06:00:52.707Z,97348.00
2023-08-31T06:03:41.214Z,97349.13
2023-08-31T06:06:29.723Z,97352.16
2023-08-31T06:09:18.466Z,97347.41
2023-08-31T06:12:09.276Z,97344.38
2023-08-31T06:14:57.852Z,97335.03
2023-08-31T06:17:46.425Z,97345.63
2023-08-31T06:20:35.168Z,97356.34
2023-08-31T06:23:23.754Z,97366.91
2023-08-31T06:26:12.311Z,97370.78
2023-08-31T06:29:02.165Z,97377.88
2023-08-31T06:31:50.740Z,97381.78
2023-08-31T06:34:39.477Z,97375.50
2023-08-31T06:37:27.971Z,97383.25
2023-08-31T06:40:16.738Z,97389.75
2023-08-31T06:43:05.639Z,97390.38
2023-08-31T06:45:58.462Z,97394.28
2023-08-31T06:48:50.898Z,97398.56
2023-08-31T06:51:39.664Z,97398.38
2023-08-31T06:54:28.231Z,97393.41
2023-08-31T06:57:16.800Z,97401.19
2023-08-31T07:00:09.240Z,97396.59
2023-08-31T07:02:59.257Z,97396.16
2023-08-31T07:05:47.864Z,97389.38
2023-08-31T07:08:38.151Z,97401.00
2023-08-31T07:11:28.618Z,97397.63
2023-08-31T07:14:17.146Z,97401.75
2023-08-31T07:17:05.719Z,97396.88
2023-08-31T07:19:55.611Z,97396.53
2023-08-31T07:22:44.225Z,97390.63
2023-08-31T07:25:32.724Z,97398.31
2023-08-31T07:28:21.215Z,97389.97
2023-08-31T07:31:10.085Z,97378.31
2023-08-31T07:33:58.818Z,97385.06
2023-08-31T07:36:48.971Z,97401.31
2023-08-31T07:39:37.661Z,97415.94
2023-08-31T07:42:26.279Z,97412.72
2023-08-31T07:45:14.919Z,97424.59
2023-08-31T07:48:04.166Z,97424.25
2023-08-31T07:50:52.759Z,97423.63
2023-08-31T07:53:42.595Z,97434.53
2023-08-31T07:56:31.371Z,97437.69
2023-08-31T07:59:20.283Z,97445.94
2023-08-31T08:02:08.899Z,97444.53
2023-08-31T08:04:57.401Z,97445.94
2023-08-31T08:07:45.920Z,97444.25
2023-08-31T08:10:35.766Z,97436.59
2023-08-31T08:13:24.304Z,97445.38
2023-08-31T08:16:13.011Z,97446.00
2023-08-31T08:19:01.716Z,97459.72
2023-08-31T08:21:50.260Z,97453.13
2023-08-31T08:24:40.052Z,97465.59
2023-08-31T08:27:32.693Z,97458.66
2023-08-31T08:30:21.472Z,97467.97
2023-08-31T08:33:11.815Z,97461.47
2023-08-31T08:36:00.958Z,97448.63
2023-08-31T08:38:49.480Z,97452.25
2023-08-31T08:41:39.502Z,97447.59
2023-08-31T08:44:34.787Z,97452.41
2023-08-31T08:47:23.513Z,97445.03
2023-08-31T08:50:13.983Z,97441.50
2023-08-31T08:53:03.209Z,97444.66
2023-08-31T08:55:51.784Z,97446.59
2023-08-31T08:58:45.122Z,97458.41
2023-08-31T09:01:37.425Z,97450.94
2023-08-31T09:04:25.950Z,97453.69
2023-08-31T09:07:14.492Z,97465.13
2023-08-31T09:10:03.040Z,97460.00
2023-08-31T09:12:52.125Z,97465.56
2023-08-31T09:15:47.427Z,97471.50
2023-08-31T09:18:37.363Z,97473.81
2023-08-31T09:21:37.425Z,97472.69
2023-08-31T09:24:26.695Z,97471.50
2023-08-31T09:27:15.532Z,97477.81
2023-08-31T09:30:04.722Z,97479.75
2023-08-31T09:32:56.580Z,97482.84
2023-08-31T09:35:52.854Z,97484.47
2023-08-31T09:38:45.211Z,97486.44
2023-08-31T09:41:34.908Z,97478.81
2023-08-31T09:44:24.472Z,97492.41
2023-08-31T09:47:15.410Z,97491.88
2023-08-31T09:50:05.520Z,97491.06
2023-08-31T09:52:59.254Z,97483.78
2023-08-31T09:55:50.243Z,97484.56
2023-08-31T09:58:39.326Z,97487.59
2023-08-31T10:01:29.833Z,97494.78
2023-08-31T10:04:19.541Z,97491.81
2023-08-31T10:07:11.297Z,97488.31
2023-08-31T10:10:03.293Z,97495.13
2023-08-31T10:12:52.721Z,97484.47
2023-08-31T10:15:43.365Z,97484.88
2023-08-31T10:18:32.950Z,97497.91
2023-08-31T10:21:22.103Z,97488.44
2023-08-31T10:24:10.722Z,97490.75
2023-08-31T10:27:20.382Z,97492.75
2023-08-31T10:30:27.695Z,97488.84
2023-08-31T10:33:24.878Z,97486.88
2023-08-31T10:36:16.609Z,97490.03
2023-08-31T10:39:13.176Z,97485.69
2023-08-31T10:42:04.065Z,97488.44
2023-08-31T10:44:52.579Z,97492.38
2023-08-31T10:47:45.922Z,97489.59
2023-08-31T10:50:47.031Z,97484.34
2023-08-31T10:53:39.288Z,97485.22
2023-08-31T10:56:32.378Z,97471.22
2023-08-31T10:59:26.197Z,97482.88
2023-08-31T11:02:41.922Z,97477.84
2023-08-31T11:05:30.703Z,97486.13
2023-08-31T11:08:28.215Z,97491.03
2023-08-31T11:11:22.071Z,97487.03
2023-08-31T11:14:11.811Z,97489.06
2023-08-31T11:17:03.139Z,97477.56
2023-08-31T11:19:51.813Z,97487.84
2023-08-31T11:22:45.181Z,97486.13
2023-08-31T11:25:34.033Z,97475.88
2023-08-31T11:28:22.528Z,97483.81
2023-08-31T11:31:11.037Z,97483.19
2023-08-31T11:34:01.047Z,97483.28
2023-08-31T11:36:50.487Z,97481.94
2023-08-31T11:39:43.134Z,97480.66
2023-08-31T11:42:37.881Z,97469.94
2023-08-31T11:45:29.770Z,97473.41
2023-08-31T11:48:18.963Z,97478.75
2023-08-31T11:51:09.421Z,97473.28
2023-08-31T11:54:00.557Z,97471.09
2023-08-31T11:56:50.346Z,97465.41
2023-08-31T11:59:41.157Z,97466.44
2023-08-31T12:02:29.627Z,97461.72
2023-08-31T12:05:18.173Z,97469.66
2023-08-31T12:08:08.916Z,97470.34
2023-08-31T12:10:58.087Z,97472.59
2023-08-31T12:13:47.518Z,97474.81
2023-08-31T12:16:37.662Z,97479.31
2023-08-31T12:19:29.990Z,97481.38
2023-08-31T12:22:18.664Z,97478.59
2023-08-31T12:25:09.477Z,97484.38
2023-08-31T12:27:58.032Z,97472.34
2023-08-31T12:30:51.530Z,97476.63
2023-08-31T12:33:40.207Z,97483.84
2023-08-31T12:36:28.828Z,97477.81
2023-08-31T12:39:17.853Z,97464.22
2023-08-31T12:42:20.627Z,97463.88
2023-08-31T12:45:12.339Z,97470.19
2023-08-31T12:48:01.302Z,97468.22
2023-08-31T12:50:50.103Z,97460.66
2023-08-31T12:53:41.081Z,97464.97
2023-08-31T12:56:31.583Z,97449.31
2023-08-31T12:59:21.510Z,97462.81
2023-08-31T13:02:11.966Z,97460.84
2023-08-31T13:05:00.550Z,97465.25
2023-08-31T13:07:49.089Z,97462.56
2023-08-31T13:10:37.736Z,97463.88
2023-08-31T13:13:27.071Z,97465.47
2023-08-31T13:16:17.058Z,97466.66
2023-08-31T13:19:05.845Z,97464.28
2023-08-31T13:21:54.334Z,97471.03
2023-08-31T13:24:42.945Z,97468.91
2023-08-31T13:27:31.501Z,97466.88
2023-08-31T13:30:20.121Z,97471.53
2023-08-31T13:33:10.380Z,97473.84
2023-08-31T13:36:00.121Z,97478.53
2023-08-31T13:38:48.650Z,97477.38
2023-08-31T13:41:37.176Z,97483.22
2023-08-31T13:44:25.727Z,97476.56
2023-08-31T13:47:14.260Z,97468.94
2023-08-31T13:50:05.126Z,97488.28
2023-08-31T13:52:54.151Z,97489.06
2023-08-31T13:55:42.951Z,97489.66
2023-08-31T13:58:31.679Z,97489.97
2023-08-31T14:01:20.445Z,97490.78
2023-08-31T14:04:08.995Z,97487.66
2023-08-31T14:06:59.037Z,97494.59
2023-08-31T14:09:47.608Z,97484.63
2023-08-31T14:12:36.435Z,97483.66
2023-08-31T14:15:25.043Z,97478.69
2023-08-31T14:18:14.236Z,97475.91
2023-08-31T14:21:04.245Z,97477.19
2023-08-31T14:23:56.578Z,97476.03
2023-08-31T14:26:46.864Z,97473.81
2023-08-31T14:29:35.987Z,97477.50
2023-08-31T14:32:24.703Z,97472.81
2023-08-31T14:35:13.277Z,97465.06
2023-08-31T14:38:01.793Z,97471.94
2023-08-31T14:40:52.967Z,97480.47
2023-08-31T14:43:41.719Z,97473.00
2023-08-31T14:46:30.213Z,97474.63
2023-08-31T14:49:18.707Z,97479.91
2023-08-31T14:52:07.489Z,97480.22
2023-08-31T14:54:57.451Z,97495.53
2023-08-31T14:57:47.469Z,97485.28
2023-08-31T15:00:36.029Z,97494.03
2023-08-31T15:03:25.335Z,97495.25
2023-08-31T15:06:14.210Z,97498.56
2023-08-31T15:09:02.750Z,97498.09
2023-08-31T15:11:51.679Z,97499.19
2023-08-31T15:14:41.547Z,97502.03
2023-08-31T15:17:30.324Z,97504.50
2023-08-31T15:20:18.945Z,97508.16
2023-08-31T15:23:07.573Z,97506.97
2023-08-31T15:26:02.235Z,97496.28
2023-08-31T15:28:53.214Z,97492.34
2023-08-31T15:31:43.130Z,97497.44
2023-08-31T15:34:32.061Z,97500.59
2023-08-31T15:37:21.209Z,97491.94
2023-08-31T15:40:10.909Z,97489.56
2023-08-31T15:42:59.671Z,97488.78
2023-08-31T15:45:49.304Z,97487.63
2023-08-31T15:48:39.143Z,97497.47
2023-08-31T15:51:30.192Z,97497.09
2023-08-31T15:54:18.859Z,97494.34
2023-08-31T15:57:07.473Z,97502.25
2023-08-31T16:00:00.557Z,97496.72
2023-08-31T16:02:49.256Z,97505.06
2023-08-31T16:05:39.847Z,97510.56
2023-08-31T16:08:29.669Z,97510.19
2023-08-31T16:11:23.438Z,97508.16
2023-08-31T16:14:12.703Z,97512.09
2023-08-31T16:17:02.389Z,97515.63
2023-08-31T16:19:51.581Z,97506.53
2023-08-31T16:22:41.708Z,97504.50
2023-08-31T16:25:30.214Z,97507.63
2023-08-31T16:28:18.823Z,97513.88
2023-08-31T16:31:07.981Z,97517.31
2023-08-31T16:33:56.493Z,97515.72
2023-08-31T16:36:45.399Z,97513.78
2023-08-31T16:39:35.309Z,97512.13
2023-08-31T16:42:23.990Z,97508.47
2023-08-31T16:45:13.799Z,97510.03
2023-08-31T16:48:02.851Z,97517.81
2023-08-31T16:50:51.518Z,97526.84
2023-08-31T16:53:40.563Z,97517.75
2023-08-31T16:56:30.485Z,97507.22
2023-08-31T16:59:19.172Z,97511.41
2023-08-31T17:02:07.728Z,97508.63
2023-08-31T17:04:57.289Z,97513.34
2023-08-31T17:07:45.911Z,97503.59
2023-08-31T17:10:34.447Z,97491.09
2023-08-31T17:13:24.297Z,97499.00
2023-08-31T17:16:13.841Z,97499.16
2023-08-31T17:19:02.392Z,97492.50
2023-08-31T17:21:50.990Z,97496.19
2023-08-31T17:24:42.250Z,97499.81
2023-08-31T17:27:31.700Z,97497.84
2023-08-31T17:30:22.123Z,97509.13
2023-08-31T17:33:10.765Z,97503.16
2023-08-31T17:35:59.349Z,97506.69
2023-08-31T17:38:48.438Z,97507.84
2023-08-31T17:41:36.984Z,97510.34
2023-08-31T17:44:26.045Z,97510.47
2023-08-31T17:47:16.046Z,97514.28
2023-08-31T17:50:05.208Z,97524.47
2023-08-31T17:52:53.805Z,97518.53
2023-08-31T17:55:42.414Z,97529.25
2023-08-31T17:58:31.008Z,97534.19
2023-08-31T18:01:19.712Z,97526.97
2023-08-31T18:04:09.686Z,97537.78
2023-08-31T18:06:58.202Z,97541.31
2023-08-31T18:09:46.720Z,97545.22
2023-08-31T18:12:35.301Z,97549.53
2023-08-31T18:15:23.849Z,97547.56
2023-08-31T18:18:12.453Z,97553.84
2023-08-31T18:21:03.801Z,97545.22
2023-08-31T18:23:52.380Z,97546.63
2023-08-31T18:26:40.922Z,97555.03
2023-08-31T18:29:29.798Z,97552.56
2023-08-31T18:32:18.355Z,97557.88
2023-08-31T18:35:07.822Z,97558.13
2023-08-31T18:37:57.757Z,97559.31
2023-08-31T18:40:46.246Z,97563.06
2023-08-31T18:43:37.422Z,97575.13
2023-08-31T18:46:25.989Z,97576.00
2023-08-31T18:49:14.520Z,97577.88
2023-08-31T18:52:03.085Z,97579.88
2023-08-31T18:54:52.957Z,97574.53
2023-08-31T18:57:41.464Z,97576.25
2023-08-31T19:00:30.479Z,97586.13
2023-08-31T19:03:19.411Z,97585.94
2023-08-31T19:06:08.036Z,97584.97
2023-08-31T19:08:56.665Z,97592.88
2023-08-31T19:11:46.656Z,97590.81
2023-08-31T19:14:35.194Z,97591.69
2023-08-31T19:17:24.429Z,97600.97
2023-08-31T19:20:15.774Z,97605.91
2023-08-31T19:23:04.835Z,97601.41
2023-08-31T19:26:02.427Z,97621.09
2023-08-31T19:28:52.467Z,97615.72
2023-08-31T19:31:43.784Z,97625.41
2023-08-31T19:34:36.114Z,97620.66
2023-08-31T19:37:25.321Z,97608.22
2023-08-31T19:40:17.186Z,97619.34
2023-08-31T19:43:06.225Z,97618.56
2023-08-31T19:45:56.149Z,97624.31
2023-08-31T19:48:44.798Z,97625.41
2023-08-31T19:51:33.541Z,97629.25
2023-08-31T19:54:22.042Z,97619.34
2023-08-31T19:57:10.610Z,97627.28
2023-08-31T19:59:59.142Z,97625.69
2023-08-31T20:02:49.073Z,97623.91
2023-08-31T20:05:37.990Z,97618.28
2023-08-31T20:08:27.482Z,97624.69
2023-08-31T20:11:16.246Z,97622.31
2023-08-31T20:14:05.698Z,97624.69
2023-08-31T20:16:54.202Z,97624.13
2023-08-31T20:19:45.199Z,97628.59
2023-08-31T20:22:34.559Z,97618.56
2023-08-31T20:25:23.096Z,97621.16
2023-08-31T20:28:12.059Z,97624.88
2023-08-31T20:31:01.550Z,97620.22
2023-08-31T20:33:50.183Z,97632.63
2023-08-31T20:36:40.740Z,97631.09
2023-08-31T20:39:29.464Z,97637.47
2023-08-31T20:42:18.301Z,97636.75
2023-08-31T20:45:11.595Z,97644.06
2023-08-31T20:48:07.244Z,97645.63
2023-08-31T20:51:04.239Z,97642.53
2023-08-31T20:53:54.189Z,97646.78
2023-08-31T20:56:42.765Z,97654.28
2023-08-31T20:59:31.463Z,97651.53
2023-08-31T21:02:20.235Z,97653.66
2023-08-31T21:05:09.638Z,97662.81
2023-08-31T21:07:58.261Z,97660.00
2023-08-31T21:10:48.152Z,97661.09
2023-08-31T21:13:37.925Z,97666.28
2023-08-31T21:16:27.194Z,97662.28
2023-08-31T21:19:15.819Z,97652.13
2023-08-31T21:22:04.860Z,97651.97
2023-08-31T21:24:53.356Z,97656.16
2023-08-31T21:27:43.208Z,97659.47
2023-08-31T21:30:36.211Z,97656.56
2023-08-31T21:33:24.922Z,97650.91
2023-08-31T21:36:13.461Z,97651.09
2023-08-31T21:39:02.009Z,97655.97
2023-08-31T21:41:50.468Z,97656.44
2023-08-31T21:44:40.306Z,97665.66
2023-08-31T21:47:28.917Z,97669.03
2023-08-31T21:50:17.600Z,97657.03
2023-08-31T21:53:08.732Z,97655.69
2023-08-31T21:56:03.740Z,97668.22
2023-08-31T21:58:52.274Z,97666.53
2023-08-31T22:01:42.161Z,97669.63
2023-08-31T22:04:31.023Z,97681.84
2023-08-31T22:07:21.281Z,97679.44
2023-08-31T22:10:13.086Z,97679.94
2023-08-31T22:13:02.067Z,97679.38
2023-08-31T22:15:53.483Z,97686.94
2023-08-31T22:18:44.025Z,97700.91
2023-08-31T22:21:32.957Z,97697.63
2023-08-31T22:24:21.863Z,97688.59
2023-08-31T22:27:10.802Z,97689.91
2023-08-31T22:29:59.760Z,97680.13
2023-08-31T22:32:48.860Z,97688.00
2023-08-31T22:35:40.504Z,97691.63
2023-08-31T22:38:28.972Z,97699.28
2023-08-31T22:41:17.468Z,97697.53
2023-08-31T22:44:06.346Z,97690.97
2023-08-31T22:46:54.879Z,97689.03
2023-08-31T22:49:43.530Z,97679.88
2023-08-31T22:52:34.386Z,97690.16
2023-08-31T22:55:23.143Z,97692.69
2023-08-31T22:58:11.933Z,97698.13
2023-08-31T23:01:00.829Z,97693.44
2023-08-31T23:03:49.358Z,97696.28
2023-08-31T23:06:37.899Z,97699.59
2023-08-31T23:09:27.811Z,97698.75
2023-08-31T23:12:16.791Z,97701.31
2023-08-31T23:15:06.619Z,97708.09
2023-08-31T23:17:55.204Z,97706.88
2023-08-31T23:20:43.781Z,97697.00
2023-08-31T23:23:32.389Z,97703.69
2023-08-31T23:26:22.256Z,97702.31
2023-08-31T23:29:12.519Z,97714.34
2023-08-31T23:32:01.026Z,97707.78
2023-08-31T23:34:49.513Z,97700.19
2023-08-31T23:37:38.043Z,97695.22
2023-08-31T23:40:26.587Z,97703.09
2023-08-31T23:43:16.547Z,97707.88
2023-08-31T23:46:05.396Z,97710.63
2023-08-31T23:48:53.944Z,97708.34
2023-08-31T23:51:42.449Z,97701.09
2023-08-31T23:54:32.926Z,97705.84
2023-08-31T23:57:21.473Z,97697.38
